Congress Lake, Ohio
Current Conditions -  °F | °C
As of 2:51 AM on Saturday 29 Nov 2014 (Local Time) from KCAK Reporting Station
Overcast Overcast  
Wind Chill: 22°   Ceiling: 6500
Heat Index: 30°   Visibility: 10mi
Dew Point: 20°   Wind: 8mph
Humidity: 66%   Direction: 160°SSE
Pressure: 30.1"   Gusts: NA
Location:  40.9665°N, 81.3038°W
Report Text: KCAK 290751Z 16007KT 10SM OVC065 M01/M07 A3010 RMK AO2 SLP208 T10111067
Loading
Personal Weather Stations






























Interactive Weather Map New forecast layout! Learn more

10-Day Weather Forecast

Advertisements
Track Severe Weather on mobile